createdAt,value
2019-01-06T00:00:09.910Z,1035.15113239
2019-01-06T00:00:22.289Z,1035.15113239
2019-01-06T00:00:34.788Z,1035.15113239
2019-01-06T00:00:47.127Z,1035.15113239
2019-01-06T00:00:59.482Z,1035.15113239
2019-01-06T00:01:11.812Z,1035.18499627
2019-01-06T00:01:24.158Z,1035.18499627
2019-01-06T00:01:36.585Z,1035.18499627
2019-01-06T00:01:48.929Z,1035.18499627
2019-01-06T00:02:01.365Z,1035.18499627
2019-01-06T00:02:13.841Z,1035.18499627
2019-01-06T00:02:26.183Z,1035.18499627
2019-01-06T00:02:38.523Z,1035.18499627
2019-01-06T00:02:50.856Z,1035.18499627
2019-01-06T00:03:03.211Z,1035.08340462
2019-01-06T00:03:15.551Z,1035.08340462
2019-01-06T00:03:29.533Z,1035.08340462
2019-01-06T00:03:42.021Z,1035.08340462
2019-01-06T00:03:54.372Z,1035.08340462
2019-01-06T00:04:06.721Z,1035.04954074
2019-01-06T00:04:19.096Z,1035.04954074
2019-01-06T00:04:31.450Z,1035.04954074
2019-01-06T00:04:43.804Z,1035.04954074
2019-01-06T00:04:56.167Z,1035.04954074
2019-01-06T00:05:08.557Z,1035.11726851
2019-01-06T00:05:20.912Z,1035.11726851
2019-01-06T00:05:33.282Z,1035.11726851
2019-01-06T00:05:45.704Z,1035.11726851
2019-01-06T00:05:58.245Z,1035.11726851
2019-01-06T00:06:10.627Z,1035.11726851
2019-01-06T00:06:22.966Z,1035.11726851
2019-01-06T00:06:35.318Z,1035.11726851
2019-01-06T00:06:47.751Z,1035.11726851
2019-01-06T00:07:00.091Z,1035.11726851
2019-01-06T00:07:12.444Z,1035.08340462
2019-01-06T00:07:24.778Z,1035.08340462
2019-01-06T00:07:37.222Z,1035.08340462
2019-01-06T00:07:49.552Z,1035.08340462
2019-01-06T00:08:01.896Z,1035.08340462
2019-01-06T00:08:14.299Z,1035.08340462
2019-01-06T00:08:26.674Z,1035.08340462
2019-01-06T00:08:39.093Z,1035.08340462
2019-01-06T00:08:51.430Z,1035.08340462
2019-01-06T00:09:04.045Z,1035.11726851
2019-01-06T00:09:16.383Z,1035.11726851
2019-01-06T00:09:28.785Z,1035.11726851
2019-01-06T00:09:41.221Z,1035.11726851
2019-01-06T00:09:53.561Z,1035.11726851
2019-01-06T00:10:05.968Z,1035.04954074
2019-01-06T00:10:18.309Z,1035.04954074
2019-01-06T00:10:30.671Z,1035.04954074
2019-01-06T00:10:43.017Z,1035.04954074
2019-01-06T00:10:55.355Z,1035.04954074
2019-01-06T00:11:07.858Z,1035.11726851
2019-01-06T00:11:20.194Z,1035.11726851
2019-01-06T00:11:32.806Z,1035.11726851
2019-01-06T00:11:45.186Z,1035.11726851
2019-01-06T00:11:57.588Z,1035.11726851
2019-01-06T00:12:12.008Z,1035.15113239
2019-01-06T00:12:24.356Z,1035.15113239
2019-01-06T00:12:36.704Z,1035.15113239
2019-01-06T00:12:49.063Z,1035.15113239
2019-01-06T00:13:01.427Z,1035.11726851
2019-01-06T00:13:13.794Z,1035.11726851
2019-01-06T00:13:26.161Z,1035.11726851
2019-01-06T00:13:38.529Z,1035.11726851
2019-01-06T00:13:50.873Z,1035.11726851
2019-01-06T00:14:03.252Z,1035.08340462
2019-01-06T00:14:15.631Z,1035.08340462
2019-01-06T00:14:27.972Z,1035.08340462
2019-01-06T00:14:40.313Z,1035.08340462
2019-01-06T00:14:52.666Z,1035.08340462
2019-01-06T00:15:05.085Z,1035.15113239
2019-01-06T00:15:17.442Z,1035.15113239
2019-01-06T00:15:29.782Z,1035.15113239
2019-01-06T00:15:42.128Z,1035.15113239
2019-01-06T00:15:54.466Z,1035.15113239
2019-01-06T00:16:06.895Z,1035.11726851
2019-01-06T00:16:19.240Z,1035.11726851
2019-01-06T00:16:31.625Z,1035.11726851
2019-01-06T00:16:43.956Z,1035.11726851
2019-01-06T00:16:56.317Z,1035.11726851
2019-01-06T00:17:08.666Z,1035.15113239
2019-01-06T00:17:21.035Z,1035.15113239
2019-01-06T00:17:33.422Z,1035.15113239
2019-01-06T00:17:45.760Z,1035.15113239
2019-01-06T00:17:58.122Z,1035.15113239
2019-01-06T00:18:10.612Z,1035.25272403
2019-01-06T00:18:23.028Z,1035.25272403
2019-01-06T00:18:35.391Z,1035.25272403
2019-01-06T00:18:47.915Z,1035.25272403
2019-01-06T00:19:00.264Z,1035.25272403
2019-01-06T00:19:12.631Z,1035.15113239
2019-01-06T00:19:24.981Z,1035.15113239
2019-01-06T00:19:37.340Z,1035.15113239
2019-01-06T00:19:49.688Z,1035.15113239
2019-01-06T00:20:02.030Z,1035.25272403
2019-01-06T00:20:14.429Z,1035.25272403
2019-01-06T00:20:26.773Z,1035.25272403
2019-01-06T00:20:39.110Z,1035.25272403
2019-01-06T00:20:51.463Z,1035.25272403
2019-01-06T00:21:03.814Z,1035.28658791
2019-01-06T00:21:16.186Z,1035.28658791
2019-01-06T00:21:28.508Z,1035.28658791
2019-01-06T00:21:40.855Z,1035.28658791
2019-01-06T00:21:53.185Z,1035.28658791
2019-01-06T00:22:05.520Z,1035.28658791
2019-01-06T00:22:18.089Z,1035.28658791
2019-01-06T00:22:30.431Z,1035.28658791
2019-01-06T00:22:42.801Z,1035.28658791
2019-01-06T00:22:55.141Z,1035.28658791
2019-01-06T00:23:07.652Z,1035.18499627
2019-01-06T00:23:20.021Z,1035.18499627
2019-01-06T00:23:32.373Z,1035.18499627
2019-01-06T00:23:44.714Z,1035.18499627
2019-01-06T00:23:57.049Z,1035.18499627
2019-01-06T00:24:09.457Z,1035.28658791
2019-01-06T00:24:21.879Z,1035.28658791
2019-01-06T00:24:34.224Z,1035.28658791
2019-01-06T00:24:46.561Z,1035.28658791
2019-01-06T00:24:58.912Z,1035.28658791
2019-01-06T00:25:11.275Z,1035.18499627
2019-01-06T00:25:23.642Z,1035.18499627
2019-01-06T00:25:35.978Z,1035.18499627
2019-01-06T00:25:48.335Z,1035.18499627
2019-01-06T00:26:00.821Z,1035.18499627
2019-01-06T00:26:13.146Z,1035.25272403
2019-01-06T00:26:25.521Z,1035.25272403
2019-01-06T00:26:37.859Z,1035.25272403
2019-01-06T00:26:50.274Z,1035.25272403
2019-01-06T00:27:02.607Z,1035.25272403
2019-01-06T00:27:15.085Z,1035.25272403
2019-01-06T00:27:27.425Z,1035.25272403
2019-01-06T00:27:39.772Z,1035.25272403
2019-01-06T00:27:52.097Z,1035.25272403
2019-01-06T00:28:04.538Z,1035.18499627
2019-01-06T00:28:16.882Z,1035.18499627
2019-01-06T00:28:29.254Z,1035.18499627
2019-01-06T00:28:41.611Z,1035.18499627
2019-01-06T00:28:53.947Z,1035.18499627
2019-01-06T00:29:06.310Z,1035.28658791
2019-01-06T00:29:18.668Z,1035.28658791
2019-01-06T00:29:31.045Z,1035.28658791
2019-01-06T00:29:43.496Z,1035.28658791
2019-01-06T00:29:55.823Z,1035.28658791
2019-01-06T00:30:10.204Z,1035.25272403
2019-01-06T00:30:22.691Z,1035.25272403
2019-01-06T00:30:35.029Z,1035.25272403
2019-01-06T00:30:47.385Z,1035.25272403
2019-01-06T00:30:59.730Z,1035.25272403
2019-01-06T00:31:12.077Z,1035.28658791
2019-01-06T00:31:24.425Z,1035.28658791
2019-01-06T00:31:36.769Z,1035.28658791
2019-01-06T00:31:49.105Z,1035.28658791
2019-01-06T00:32:01.558Z,1035.28658791
2019-01-06T00:32:14.003Z,1035.28658791
2019-01-06T00:32:26.353Z,1035.28658791
2019-01-06T00:32:38.704Z,1035.28658791
2019-01-06T00:32:51.050Z,1035.28658791
2019-01-06T00:33:03.412Z,1035.25272403
2019-01-06T00:33:15.898Z,1035.25272403
2019-01-06T00:33:28.274Z,1035.25272403
2019-01-06T00:33:40.615Z,1035.25272403
2019-01-06T00:33:52.974Z,1035.25272403
2019-01-06T00:34:05.329Z,1035.25272403
2019-01-06T00:34:17.744Z,1035.25272403
2019-01-06T00:34:30.342Z,1035.25272403
2019-01-06T00:34:42.706Z,1035.25272403
2019-01-06T00:34:55.042Z,1035.25272403
2019-01-06T00:35:07.448Z,1035.32045179
2019-01-06T00:35:19.804Z,1035.32045179
2019-01-06T00:35:32.164Z,1035.32045179
2019-01-06T00:35:44.801Z,1035.32045179
2019-01-06T00:35:57.153Z,1035.32045179
2019-01-06T00:36:09.487Z,1035.21886015
2019-01-06T00:36:21.839Z,1035.21886015
2019-01-06T00:36:34.341Z,1035.21886015
2019-01-06T00:36:46.713Z,1035.21886015
2019-01-06T00:36:59.053Z,1035.21886015
2019-01-06T00:37:11.388Z,1035.28658791
2019-01-06T00:37:23.905Z,1035.28658791
2019-01-06T00:37:36.247Z,1035.28658791
2019-01-06T00:37:48.603Z,1035.28658791
2019-01-06T00:38:00.953Z,1035.28658791
2019-01-06T00:38:13.385Z,1035.18499627
2019-01-06T00:38:25.745Z,1035.18499627
2019-01-06T00:38:38.092Z,1035.18499627
2019-01-06T00:38:50.426Z,1035.18499627
2019-01-06T00:39:03.172Z,1035.25272403
2019-01-06T00:39:15.506Z,1035.25272403
2019-01-06T00:39:27.848Z,1035.25272403
2019-01-06T00:39:40.197Z,1035.25272403
2019-01-06T00:39:52.562Z,1035.25272403
2019-01-06T00:40:04.896Z,1035.25272403
2019-01-06T00:40:17.366Z,1035.25272403
2019-01-06T00:40:29.702Z,1035.25272403
2019-01-06T00:40:42.045Z,1035.25272403
2019-01-06T00:40:54.385Z,1035.25272403
2019-01-06T00:41:06.753Z,1035.35431568
2019-01-06T00:41:19.222Z,1035.35431568
2019-01-06T00:41:31.655Z,1035.35431568
2019-01-06T00:41:43.989Z,1035.35431568
2019-01-06T00:41:56.354Z,1035.35431568
2019-01-06T00:42:08.687Z,1035.35431568
2019-01-06T00:42:21.028Z,1035.35431568
2019-01-06T00:42:33.494Z,1035.35431568
2019-01-06T00:42:45.836Z,1035.35431568
2019-01-06T00:42:58.179Z,1035.35431568
2019-01-06T00:43:10.514Z,1035.32045179
2019-01-06T00:43:22.854Z,1035.32045179
2019-01-06T00:43:35.196Z,1035.32045179
2019-01-06T00:43:47.525Z,1035.32045179
2019-01-06T00:43:59.898Z,1035.32045179
2019-01-06T00:44:12.234Z,1035.42204344
2019-01-06T00:44:24.565Z,1035.42204344
2019-01-06T00:44:36.953Z,1035.42204344
2019-01-06T00:44:49.410Z,1035.42204344
2019-01-06T00:45:01.754Z,1035.45590732
2019-01-06T00:45:14.109Z,1035.45590732
2019-01-06T00:45:26.457Z,1035.45590732
2019-01-06T00:45:38.795Z,1035.45590732
2019-01-06T00:45:51.141Z,1035.45590732
2019-01-06T00:46:03.496Z,1035.35431568
2019-01-06T00:46:15.867Z,1035.35431568
2019-01-06T00:46:28.216Z,1035.35431568
2019-01-06T00:46:40.548Z,1035.35431568
2019-01-06T00:46:52.968Z,1035.35431568
2019-01-06T00:47:05.310Z,1035.45590732
2019-01-06T00:47:17.637Z,1035.45590732
2019-01-06T00:47:29.976Z,1035.45590732
2019-01-06T00:47:42.315Z,1035.45590732
2019-01-06T00:47:54.730Z,1035.45590732
2019-01-06T00:48:07.062Z,1035.45590732
2019-01-06T00:48:19.401Z,1035.45590732
2019-01-06T00:48:31.747Z,1035.45590732
2019-01-06T00:48:44.074Z,1035.45590732
2019-01-06T00:48:56.442Z,1035.45590732
2019-01-06T00:49:08.792Z,1035.45590732
2019-01-06T00:49:21.154Z,1035.45590732
2019-01-06T00:49:33.488Z,1035.45590732
2019-01-06T00:49:45.826Z,1035.45590732
2019-01-06T00:49:58.196Z,1035.45590732
2019-01-06T00:50:10.707Z,1035.45590732
2019-01-06T00:50:23.085Z,1035.45590732
2019-01-06T00:50:35.424Z,1035.45590732
2019-01-06T00:50:47.758Z,1035.45590732
2019-01-06T00:51:00.087Z,1035.45590732
2019-01-06T00:51:12.462Z,1035.42204344
2019-01-06T00:51:24.784Z,1035.42204344
2019-01-06T00:51:37.130Z,1035.42204344
2019-01-06T00:51:49.482Z,1035.42204344
2019-01-06T00:52:01.891Z,1035.35431568
2019-01-06T00:52:14.233Z,1035.35431568
2019-01-06T00:52:26.605Z,1035.35431568
2019-01-06T00:52:38.943Z,1035.35431568
2019-01-06T00:52:51.532Z,1035.35431568
2019-01-06T00:53:03.913Z,1035.45590732
2019-01-06T00:53:16.253Z,1035.45590732
2019-01-06T00:53:28.610Z,1035.45590732
2019-01-06T00:53:40.953Z,1035.45590732
2019-01-06T00:53:53.302Z,1035.45590732
2019-01-06T00:54:05.660Z,1035.45590732
2019-01-06T00:54:17.995Z,1035.45590732
2019-01-06T00:54:30.340Z,1035.45590732
2019-01-06T00:54:42.674Z,1035.45590732
2019-01-06T00:54:55.026Z,1035.45590732
2019-01-06T00:55:07.360Z,1035.45590732
2019-01-06T00:55:19.795Z,1035.45590732
2019-01-06T00:55:32.293Z,1035.45590732
2019-01-06T00:55:44.636Z,1035.45590732
2019-01-06T00:55:56.971Z,1035.45590732
2019-01-06T00:56:09.316Z,1035.4897712
2019-01-06T00:56:21.662Z,1035.4897712
2019-01-06T00:56:34.074Z,1035.4897712
2019-01-06T00:56:46.425Z,1035.4897712
2019-01-06T00:56:58.828Z,1035.4897712
2019-01-06T00:57:11.272Z,1035.45590732
2019-01-06T00:57:23.612Z,1035.45590732
2019-01-06T00:57:35.980Z,1035.45590732
2019-01-06T00:57:48.314Z,1035.45590732
2019-01-06T00:58:00.654Z,1035.45590732
2019-01-06T00:58:12.993Z,1035.45590732
2019-01-06T00:58:25.341Z,1035.45590732
2019-01-06T00:58:37.679Z,1035.45590732
2019-01-06T00:58:50.025Z,1035.45590732
2019-01-06T00:59:02.358Z,1035.38817956
2019-01-06T00:59:14.703Z,1035.38817956
2019-01-06T00:59:27.063Z,1035.38817956
2019-01-06T00:59:39.438Z,1035.38817956
2019-01-06T00:59:51.785Z,1035.38817956
2019-01-06T01:00:04.151Z,1035.45590732
2019-01-06T01:00:16.531Z,1035.45590732
2019-01-06T01:00:28.902Z,1035.45590732
2019-01-06T01:00:41.282Z,1035.45590732
2019-01-06T01:00:53.646Z,1035.45590732
2019-01-06T01:01:06.007Z,1035.52363508
2019-01-06T01:01:18.379Z,1035.52363508
2019-01-06T01:01:30.737Z,1035.52363508
2019-01-06T01:01:43.096Z,1035.52363508
2019-01-06T01:01:55.465Z,1035.52363508
2019-01-06T01:02:08.062Z,1035.4897712
2019-01-06T01:02:20.397Z,1035.4897712
2019-01-06T01:02:32.766Z,1035.4897712
2019-01-06T01:02:46.490Z,1035.4897712
2019-01-06T01:02:58.899Z,1035.4897712
2019-01-06T01:03:11.261Z,1035.52363508
2019-01-06T01:03:23.610Z,1035.52363508
2019-01-06T01:03:35.963Z,1035.52363508
2019-01-06T01:03:48.338Z,1035.52363508
2019-01-06T01:04:00.671Z,1035.52363508
2019-01-06T01:04:13.003Z,1035.42204344
2019-01-06T01:04:25.411Z,1035.42204344
2019-01-06T01:04:37.770Z,1035.42204344
2019-01-06T01:04:50.150Z,1035.42204344
2019-01-06T01:05:02.516Z,1035.45590732
2019-01-06T01:05:14.871Z,1035.45590732
2019-01-06T01:05:27.227Z,1035.45590732
2019-01-06T01:05:39.574Z,1035.45590732
2019-01-06T01:05:51.928Z,1035.45590732
2019-01-06T01:06:04.430Z,1035.55749897
2019-01-06T01:06:16.762Z,1035.55749897
2019-01-06T01:06:29.116Z,1035.55749897
2019-01-06T01:06:41.465Z,1035.55749897
2019-01-06T01:06:53.885Z,1035.55749897
2019-01-06T01:07:06.369Z,1035.45590732
2019-01-06T01:07:18.773Z,1035.45590732
2019-01-06T01:07:31.155Z,1035.45590732
2019-01-06T01:07:43.515Z,1035.45590732
2019-01-06T01:07:55.877Z,1035.45590732
2019-01-06T01:08:08.218Z,1035.42204344
2019-01-06T01:08:20.555Z,1035.42204344
2019-01-06T01:08:32.931Z,1035.42204344
2019-01-06T01:08:45.384Z,1035.42204344
2019-01-06T01:08:57.884Z,1035.42204344
2019-01-06T01:09:10.229Z,1035.4897712
2019-01-06T01:09:22.599Z,1035.4897712
2019-01-06T01:09:35.940Z,1035.4897712
2019-01-06T01:09:48.353Z,1035.4897712
2019-01-06T01:10:00.701Z,1035.4897712
2019-01-06T01:10:13.062Z,1035.4897712
2019-01-06T01:10:25.478Z,1035.4897712
2019-01-06T01:10:37.855Z,1035.4897712
2019-01-06T01:10:50.211Z,1035.4897712
2019-01-06T01:11:02.574Z,1035.42204344
2019-01-06T01:11:14.909Z,1035.42204344
2019-01-06T01:11:27.252Z,1035.42204344
2019-01-06T01:11:39.586Z,1035.42204344
2019-01-06T01:11:52.334Z,1035.42204344
2019-01-06T01:12:04.671Z,1035.38817956
2019-01-06T01:12:17.018Z,1035.38817956
2019-01-06T01:12:29.360Z,1035.38817956
2019-01-06T01:12:41.725Z,1035.38817956
2019-01-06T01:12:54.146Z,1035.38817956
2019-01-06T01:13:06.486Z,1035.38817956
2019-01-06T01:13:18.863Z,1035.38817956
2019-01-06T01:13:31.198Z,1035.38817956
2019-01-06T01:13:43.559Z,1035.38817956
2019-01-06T01:13:55.902Z,1035.38817956
2019-01-06T01:14:08.267Z,1035.32045179
2019-01-06T01:14:20.629Z,1035.32045179
2019-01-06T01:14:32.980Z,1035.32045179
2019-01-06T01:14:45.407Z,1035.32045179
2019-01-06T01:14:57.762Z,1035.32045179
2019-01-06T01:15:10.142Z,1035.38817956
2019-01-06T01:15:22.569Z,1035.38817956
2019-01-06T01:15:34.913Z,1035.38817956
2019-01-06T01:15:47.267Z,1035.38817956
2019-01-06T01:15:59.696Z,1035.38817956
2019-01-06T01:16:12.039Z,1035.42204344
2019-01-06T01:16:24.457Z,1035.42204344
2019-01-06T01:16:36.793Z,1035.42204344
2019-01-06T01:16:49.135Z,1035.42204344
2019-01-06T01:17:01.515Z,1035.42204344
2019-01-06T01:17:13.849Z,1035.42204344
2019-01-06T01:17:26.186Z,1035.42204344
2019-01-06T01:17:38.529Z,1035.42204344
2019-01-06T01:17:50.956Z,1035.42204344
2019-01-06T01:18:03.497Z,1035.45590732
2019-01-06T01:18:15.847Z,1035.45590732
2019-01-06T01:18:28.199Z,1035.45590732
2019-01-06T01:18:40.625Z,1035.45590732
2019-01-06T01:18:53.093Z,1035.45590732
2019-01-06T01:19:05.438Z,1035.45590732
2019-01-06T01:19:17.786Z,1035.45590732
2019-01-06T01:19:30.158Z,1035.45590732
2019-01-06T01:19:44.113Z,1035.45590732
2019-01-06T01:19:56.464Z,1035.45590732
2019-01-06T01:20:08.822Z,1035.42204344
2019-01-06T01:20:21.207Z,1035.42204344
2019-01-06T01:20:33.577Z,1035.42204344
2019-01-06T01:20:45.941Z,1035.42204344
2019-01-06T01:20:58.322Z,1035.42204344
2019-01-06T01:21:10.678Z,1035.4897712
2019-01-06T01:21:23.091Z,1035.4897712
2019-01-06T01:21:35.458Z,1035.4897712
2019-01-06T01:21:47.814Z,1035.4897712
2019-01-06T01:22:00.175Z,1035.4897712
2019-01-06T01:22:12.523Z,1035.45590732
2019-01-06T01:22:24.862Z,1035.45590732
2019-01-06T01:22:37.242Z,1035.45590732
2019-01-06T01:22:49.605Z,1035.45590732
2019-01-06T01:23:02.086Z,1035.42204344
2019-01-06T01:23:14.453Z,1035.42204344
2019-01-06T01:23:26.792Z,1035.42204344
2019-01-06T01:23:39.128Z,1035.42204344
2019-01-06T01:23:51.484Z,1035.42204344
2019-01-06T01:24:03.830Z,1035.4897712
2019-01-06T01:24:16.163Z,1035.4897712
2019-01-06T01:24:29.084Z,1035.4897712
2019-01-06T01:24:41.445Z,1035.4897712
2019-01-06T01:24:55.823Z,1035.4897712
2019-01-06T01:25:08.175Z,1035.4897712
2019-01-06T01:25:20.523Z,1035.4897712
2019-01-06T01:25:33.018Z,1035.4897712
2019-01-06T01:25:45.380Z,1035.4897712
2019-01-06T01:25:57.729Z,1035.4897712
2019-01-06T01:26:10.229Z,1035.55749897
2019-01-06T01:26:22.570Z,1035.55749897
2019-01-06T01:26:34.994Z,1035.55749897
2019-01-06T01:26:55.085Z,1035.55749897
2019-01-06T01:27:07.432Z,1035.59136285
2019-01-06T01:27:19.927Z,1035.59136285
2019-01-06T01:27:32.274Z,1035.59136285
2019-01-06T01:27:44.633Z,1035.59136285
2019-01-06T01:27:56.977Z,1035.59136285
2019-01-06T01:28:09.328Z,1035.52363508
2019-01-06T01:28:21.787Z,1035.52363508
2019-01-06T01:28:34.130Z,1035.52363508
2019-01-06T01:28:46.490Z,1035.52363508
2019-01-06T01:28:58.859Z,1035.52363508
2019-01-06T01:29:11.202Z,1035.52363508
2019-01-06T01:29:23.548Z,1035.52363508
2019-01-06T01:29:35.908Z,1035.52363508
2019-01-06T01:29:48.237Z,1035.52363508
2019-01-06T01:30:00.577Z,1035.52363508
2019-01-06T01:30:13.102Z,1035.59136285
2019-01-06T01:30:25.576Z,1035.59136285
2019-01-06T01:30:37.940Z,1035.59136285
2019-01-06T01:30:50.307Z,1035.59136285
2019-01-06T01:31:02.668Z,1035.52363508
2019-01-06T01:31:15.011Z,1035.52363508
2019-01-06T01:31:27.355Z,1035.52363508
2019-01-06T01:31:39.718Z,1035.52363508
2019-01-06T01:31:52.055Z,1035.52363508
2019-01-06T01:32:04.498Z,1035.55749897
2019-01-06T01:32:16.848Z,1035.55749897
2019-01-06T01:32:29.227Z,1035.55749897
2019-01-06T01:32:41.571Z,1035.55749897
2019-01-06T01:32:53.981Z,1035.55749897
2019-01-06T01:33:06.320Z,1035.52363508
2019-01-06T01:33:18.833Z,1035.52363508
2019-01-06T01:33:31.170Z,1035.52363508
2019-01-06T01:33:43.510Z,1035.52363508
2019-01-06T01:33:55.846Z,1035.52363508
2019-01-06T01:34:08.311Z,1035.59136285
2019-01-06T01:34:20.790Z,1035.59136285
2019-01-06T01:34:33.129Z,1035.59136285
2019-01-06T01:34:45.483Z,1035.59136285
2019-01-06T01:34:59.086Z,1035.59136285
2019-01-06T01:35:11.428Z,1035.55749897
2019-01-06T01:35:23.789Z,1035.55749897
2019-01-06T01:35:36.134Z,1035.55749897
2019-01-06T01:35:49.399Z,1035.55749897
2019-01-06T01:36:01.736Z,1035.55749897
2019-01-06T01:36:14.076Z,1035.55749897
2019-01-06T01:36:26.419Z,1035.55749897
2019-01-06T01:36:38.769Z,1035.55749897
2019-01-06T01:36:51.104Z,1035.55749897
2019-01-06T01:37:03.452Z,1035.62522673
2019-01-06T01:37:15.906Z,1035.62522673
2019-01-06T01:37:28.328Z,1035.62522673
2019-01-06T01:37:40.654Z,1035.62522673
2019-01-06T01:37:53.139Z,1035.62522673
2019-01-06T01:38:05.487Z,1035.52363508
2019-01-06T01:38:17.823Z,1035.52363508
2019-01-06T01:38:30.172Z,1035.52363508
2019-01-06T01:38:42.519Z,1035.52363508
2019-01-06T01:38:55.006Z,1035.52363508
2019-01-06T01:39:07.347Z,1035.59136285
2019-01-06T01:39:19.685Z,1035.59136285
2019-01-06T01:39:32.009Z,1035.59136285
2019-01-06T01:39:44.344Z,1035.59136285
2019-01-06T01:39:56.770Z,1035.59136285
2019-01-06T01:40:09.250Z,1035.62522673
2019-01-06T01:40:21.968Z,1035.62522673
2019-01-06T01:40:34.334Z,1035.62522673
2019-01-06T01:40:46.678Z,1035.62522673
2019-01-06T01:40:59.090Z,1035.62522673
2019-01-06T01:41:11.579Z,1035.65909061
2019-01-06T01:41:24.010Z,1035.65909061
2019-01-06T01:41:36.358Z,1035.65909061
2019-01-06T01:41:48.706Z,1035.65909061
2019-01-06T01:42:01.069Z,1035.65909061
2019-01-06T01:42:13.412Z,1035.62522673
2019-01-06T01:42:25.753Z,1035.62522673
2019-01-06T01:42:38.153Z,1035.62522673
2019-01-06T01:42:50.501Z,1035.62522673
2019-01-06T01:43:02.840Z,1035.62522673
2019-01-06T01:43:16.490Z,1035.62522673
2019-01-06T01:43:28.860Z,1035.62522673
2019-01-06T01:43:41.209Z,1035.62522673
2019-01-06T01:43:53.571Z,1035.62522673
2019-01-06T01:44:05.908Z,1035.76068226
2019-01-06T01:44:18.245Z,1035.76068226
2019-01-06T01:44:30.595Z,1035.76068226
2019-01-06T01:44:42.965Z,1035.76068226
2019-01-06T01:44:55.477Z,1035.76068226
2019-01-06T01:45:07.835Z,1035.62522673
2019-01-06T01:45:20.187Z,1035.62522673
2019-01-06T01:45:32.574Z,1035.62522673
2019-01-06T01:45:44.916Z,1035.62522673
2019-01-06T01:45:57.352Z,1035.62522673
2019-01-06T01:46:09.689Z,1035.65909061
2019-01-06T01:46:22.053Z,1035.65909061
2019-01-06T01:46:34.404Z,1035.65909061
2019-01-06T01:46:46.761Z,1035.65909061
2019-01-06T01:46:59.116Z,1035.65909061
2019-01-06T01:47:11.468Z,1035.62522673
2019-01-06T01:47:23.817Z,1035.62522673
2019-01-06T01:47:36.259Z,1035.62522673
2019-01-06T01:47:48.614Z,1035.62522673
2019-01-06T01:48:00.969Z,1035.62522673
2019-01-06T01:48:13.314Z,1035.69295449
2019-01-06T01:48:25.645Z,1035.69295449
2019-01-06T01:48:37.997Z,1035.69295449
2019-01-06T01:48:50.407Z,1035.69295449
2019-01-06T01:49:02.741Z,1035.76068226
2019-01-06T01:49:15.082Z,1035.76068226
2019-01-06T01:49:27.426Z,1035.76068226
2019-01-06T01:49:39.757Z,1035.76068226
2019-01-06T01:49:52.182Z,1035.76068226
2019-01-06T01:50:04.512Z,1035.69295449
2019-01-06T01:50:16.951Z,1035.69295449
2019-01-06T01:50:29.293Z,1035.69295449
2019-01-06T01:50:41.817Z,1035.69295449
2019-01-06T01:50:54.178Z,1035.69295449
2019-01-06T01:51:06.531Z,1035.69295449
2019-01-06T01:51:18.872Z,1035.69295449
2019-01-06T01:51:31.209Z,1035.69295449
2019-01-06T01:51:43.554Z,1035.69295449
2019-01-06T01:51:55.896Z,1035.69295449
2019-01-06T01:52:08.319Z,1035.72681837
2019-01-06T01:52:20.675Z,1035.72681837
2019-01-06T01:52:33.021Z,1035.72681837
2019-01-06T01:52:45.410Z,1035.72681837
2019-01-06T01:52:57.820Z,1035.72681837
2019-01-06T01:53:10.181Z,1035.65909061
2019-01-06T01:53:22.534Z,1035.65909061
2019-01-06T01:53:34.871Z,1035.65909061
2019-01-06T01:53:47.215Z,1035.65909061
2019-01-06T01:53:59.562Z,1035.65909061
2019-01-06T01:54:11.906Z,1035.59136285
2019-01-06T01:54:24.348Z,1035.59136285
2019-01-06T01:54:36.816Z,1035.59136285
2019-01-06T01:54:49.193Z,1035.59136285
2019-01-06T01:55:01.549Z,1035.65909061
2019-01-06T01:55:13.946Z,1035.65909061
2019-01-06T01:55:26.398Z,1035.65909061
2019-01-06T01:55:38.748Z,1035.65909061
2019-01-06T01:55:51.093Z,1035.65909061
2019-01-06T01:56:03.440Z,1035.69295449
2019-01-06T01:56:15.786Z,1035.69295449
2019-01-06T01:56:28.116Z,1035.69295449
2019-01-06T01:56:40.449Z,1035.69295449
2019-01-06T01:56:52.813Z,1035.69295449
2019-01-06T01:57:05.149Z,1035.59136285
2019-01-06T01:57:17.479Z,1035.59136285
2019-01-06T01:57:29.806Z,1035.59136285
2019-01-06T01:57:42.182Z,1035.59136285
2019-01-06T01:57:54.505Z,1035.59136285
2019-01-06T01:58:06.945Z,1035.69295449
2019-01-06T01:58:19.315Z,1035.69295449
2019-01-06T01:58:31.695Z,1035.69295449
2019-01-06T01:58:44.040Z,1035.69295449
2019-01-06T01:58:56.798Z,1035.69295449
2019-01-06T01:59:09.159Z,1035.65909061
2019-01-06T01:59:21.514Z,1035.65909061
2019-01-06T01:59:33.864Z,1035.65909061
2019-01-06T01:59:46.212Z,1035.65909061
2019-01-06T01:59:58.626Z,1035.65909061
2019-01-06T02:00:10.990Z,1035.69295449
2019-01-06T02:00:23.362Z,1035.69295449
2019-01-06T02:00:35.893Z,1035.69295449
2019-01-06T02:00:48.271Z,1035.69295449
2019-01-06T02:01:00.651Z,1035.69295449
2019-01-06T02:01:13.056Z,1035.76068226
2019-01-06T02:01:25.413Z,1035.76068226
2019-01-06T02:01:37.824Z,1035.76068226
2019-01-06T02:01:50.399Z,1035.76068226
2019-01-06T02:02:02.786Z,1035.82841002
2019-01-06T02:02:15.261Z,1035.82841002
2019-01-06T02:02:27.615Z,1035.82841002
2019-01-06T02:02:39.967Z,1035.82841002
2019-01-06T02:02:52.329Z,1035.82841002
2019-01-06T02:03:04.664Z,1035.72681837
2019-01-06T02:03:17.021Z,1035.72681837
2019-01-06T02:03:29.454Z,1035.72681837
2019-01-06T02:03:41.809Z,1035.72681837
2019-01-06T02:03:54.142Z,1035.72681837
2019-01-06T02:04:06.489Z,1035.72681837
2019-01-06T02:04:18.919Z,1035.72681837
2019-01-06T02:04:31.298Z,1035.72681837
2019-01-06T02:04:43.632Z,1035.72681837
2019-01-06T02:04:55.983Z,1035.72681837
2019-01-06T02:05:08.417Z,1035.82841002
2019-01-06T02:05:20.816Z,1035.82841002
2019-01-06T02:05:33.166Z,1035.82841002
2019-01-06T02:05:45.513Z,1035.82841002
2019-01-06T02:05:58.144Z,1035.82841002
2019-01-06T02:06:10.498Z,1035.79454614
2019-01-06T02:06:22.890Z,1035.79454614
2019-01-06T02:06:35.243Z,1035.79454614
2019-01-06T02:06:47.594Z,1035.79454614
2019-01-06T02:06:59.935Z,1035.79454614
2019-01-06T02:07:12.284Z,1035.82841002